Hauptseite
METAR-TAF:

METAR-TAF

Flughäfen :

Rostock, Deutschland

Flughafen Rostock-Laage

Breite: 53-55N, Länge: 012-17E, Höhe: 40 m

Beobachtung

Neuester Wetterbericht von vor 27 Minuten, um 11:38 UTC
Wind 16 kt aus West/Nordwest
Temperatur 16°C
Luftfeuchtigkeit 82%
Luftdruck 1018 hPa
Sichtweite 10 km oder mehr
Aufgelockert bewölkt in der Höhe von 2000 ft
Durchbrochene Bewölkung in der Höhe von 5000 ft
Schauer in der Nähe

METAR: ETNL 211138Z 29016KT 9999 VCSH SCT020 BKN050 16/13 Q1018 BLU BLU

Zeit: 14:05 (12:05 UTC)

Prognose

Neuester Wetterbericht von vor 1 Stunde und 45 Minuten, um 10:20 UTC
Gültige Prognose vom 21 um 11 UTC bis 21 um 20 UTC
Wind 17 kt aus West, Böen bis zu 27 kt
Sichtweite 10 km oder mehr
Durchbrochene Bewölkung in der Höhe von 2000 ft
Durchbrochene Bewölkung in der Höhe von 3500 ft

TAF: ETNL 211020Z 2111/2120 27015G25KT 9999 NSW BKN020 BEMCG 2111/2113 28017G27KT 9999 NSW BKN035 BY ETGL

Wetterbeobachtungen und Prognosen von mehr als 4000 Flughäfen (METAR und TAF Bericht).

Die verfügbaren Stationen werden durch gelbe und rote Markierungen auf der Karte dargestellt.

Führen Sie die Maus auf sie, um den Namen der Station zu sehen.

Darauf klicken, um die Beobachtung von Wetterbeobachtungen und Prognosen zu sehen.

Um die Karte zu ändern : klicken Sie auf den grünen Tasten mit einem schwarzen Kreuz Zum Vergrößern, auf den grünen Button mit einem Gedankenstrich zu verkleinern, oder auf die grünen Pfeile für benachbarte Karten.


METAR-TAF: